createdAt,value
2023-09-10T00:00:07.571Z,10.83
2023-09-10T00:01:09.886Z,10.83
2023-09-10T00:02:12.285Z,10.82
2023-09-10T00:03:15.280Z,10.81
2023-09-10T00:04:17.289Z,10.78
2023-09-10T00:05:19.206Z,10.77
2023-09-10T00:06:20.984Z,10.77
2023-09-10T00:07:23.143Z,10.76
2023-09-10T00:08:24.980Z,10.76
2023-09-10T00:09:26.780Z,10.73
2023-09-10T00:10:29.039Z,10.71
2023-09-10T00:11:30.996Z,10.70
2023-09-10T00:12:33.068Z,10.70
2023-09-10T00:13:36.137Z,10.68
2023-09-10T00:14:37.957Z,10.68
2023-09-10T00:15:40.547Z,10.70
2023-09-10T00:16:43.409Z,10.70
2023-09-10T00:17:45.427Z,10.69
2023-09-10T00:18:47.328Z,10.69
2023-09-10T00:19:49.209Z,10.68
2023-09-10T00:20:54.506Z,10.68
2023-09-10T00:21:56.400Z,10.67
2023-09-10T00:22:58.562Z,10.67
2023-09-10T00:24:00.486Z,10.65
2023-09-10T00:25:02.394Z,10.63
2023-09-10T00:26:04.416Z,10.62
2023-09-10T00:27:06.627Z,10.60
2023-09-10T00:28:08.628Z,10.58
2023-09-10T00:29:10.471Z,10.58
2023-09-10T00:30:12.962Z,10.57
2023-09-10T00:31:15.051Z,10.57
2023-09-10T00:32:17.019Z,10.60
2023-09-10T00:33:19.292Z,10.62
2023-09-10T00:34:21.281Z,10.61
2023-09-10T00:35:23.297Z,10.58
2023-09-10T00:36:25.161Z,10.62
2023-09-10T00:37:27.187Z,10.62
2023-09-10T00:38:29.163Z,10.62
2023-09-10T00:39:31.055Z,10.60
2023-09-10T00:42:00.088Z,10.54
2023-09-10T00:43:02.593Z,10.51
2023-09-10T00:44:05.015Z,10.50
2023-09-10T00:45:08.977Z,10.49
2023-09-10T00:46:10.745Z,10.49
2023-09-10T00:47:12.981Z,10.45
2023-09-10T00:48:15.035Z,10.42
2023-09-10T00:49:16.966Z,10.40
2023-09-10T00:50:19.151Z,10.39
2023-09-10T00:51:21.602Z,10.37
2023-09-10T00:52:24.423Z,10.36
2023-09-10T00:53:27.244Z,10.34
2023-09-10T00:54:33.364Z,10.34
2023-09-10T00:55:36.301Z,10.31
2023-09-10T00:56:38.584Z,10.31
2023-09-10T00:57:40.963Z,10.31
2023-09-10T00:58:43.554Z,10.30
2023-09-10T00:59:45.956Z,10.30
2023-09-10T01:00:48.929Z,10.27
2023-09-10T01:01:51.399Z,10.25
2023-09-10T01:02:53.750Z,10.24
2023-09-10T01:03:56.054Z,10.22
2023-09-10T01:04:57.905Z,10.23
2023-09-10T01:06:00.451Z,10.22
2023-09-10T01:07:03.949Z,10.20
2023-09-10T01:08:06.473Z,10.21
2023-09-10T01:09:09.094Z,10.18
2023-09-10T01:10:11.420Z,10.18
2023-09-10T01:11:49.829Z,10.17
2023-09-10T01:13:24.232Z,10.15
2023-09-10T01:14:42.370Z,10.11
2023-09-10T01:15:59.105Z,10.11
2023-09-10T01:17:09.338Z,10.09
2023-09-10T01:18:22.154Z,10.05
2023-09-10T01:19:51.532Z,10.03
2023-09-10T01:21:02.151Z,9.99
2023-09-10T01:22:15.199Z,9.98
2023-09-10T01:23:27.366Z,9.97
2023-09-10T01:25:04.621Z,9.97
2023-09-10T01:26:06.629Z,9.94
2023-09-10T01:27:08.442Z,9.93
2023-09-10T01:28:10.278Z,9.91
2023-09-10T01:29:18.566Z,9.90
2023-09-10T01:30:20.718Z,9.89
2023-09-10T01:31:22.737Z,9.89
2023-09-10T01:32:32.802Z,9.86
2023-09-10T01:33:39.652Z,9.83
2023-09-10T01:34:50.888Z,9.83
2023-09-10T01:36:13.190Z,9.81
2023-09-10T01:37:23.989Z,9.79
2023-09-10T01:38:30.093Z,9.79
2023-09-10T01:39:38.653Z,9.79
2023-09-10T01:40:59.844Z,9.78
2023-09-10T01:42:01.928Z,9.76
2023-09-10T01:43:07.236Z,9.77
2023-09-10T01:44:09.842Z,9.75
2023-09-10T01:45:12.373Z,9.75
2023-09-10T01:46:15.435Z,9.73
2023-09-10T01:47:18.114Z,9.72
2023-09-10T01:48:20.492Z,9.72
2023-09-10T01:49:22.937Z,9.72
2023-09-10T01:50:24.833Z,9.70
2023-09-10T01:51:26.707Z,9.71
2023-09-10T01:52:28.525Z,9.69
2023-09-10T01:53:30.413Z,9.69
2023-09-10T01:54:32.333Z,9.68
2023-09-10T01:55:34.179Z,9.66
2023-09-10T01:56:36.009Z,9.65
2023-09-10T01:57:37.847Z,9.64
2023-09-10T01:58:39.962Z,9.63
2023-09-10T01:59:42.258Z,9.64
2023-09-10T02:00:45.234Z,9.62
2023-09-10T02:01:47.200Z,9.60
2023-09-10T02:02:49.859Z,9.61
2023-09-10T02:03:52.085Z,9.60
2023-09-10T02:04:54.149Z,9.61
2023-09-10T02:05:56.017Z,9.60
2023-09-10T02:06:57.957Z,9.60
2023-09-10T02:08:00.091Z,9.59
2023-09-10T02:09:02.025Z,9.59
2023-09-10T02:10:04.572Z,9.60
2023-09-10T02:11:06.654Z,9.63
2023-09-10T02:12:09.003Z,9.65
2023-09-10T02:13:10.999Z,9.71
2023-09-10T02:14:12.933Z,9.79
2023-09-10T02:15:15.000Z,9.86
2023-09-10T02:16:16.911Z,9.95
2023-09-10T02:17:18.811Z,10.02
2023-09-10T02:18:20.869Z,10.09
2023-09-10T02:19:23.020Z,10.15
2023-09-10T02:20:24.916Z,10.24
2023-09-10T02:21:26.760Z,10.32
2023-09-10T02:22:28.667Z,10.39
2023-09-10T02:23:30.590Z,10.45
2023-09-10T02:24:32.385Z,10.52
2023-09-10T02:25:34.442Z,10.59
2023-09-10T02:26:36.417Z,10.64
2023-09-10T02:27:38.357Z,10.72
2023-09-10T02:28:40.794Z,10.79
2023-09-10T02:29:43.269Z,10.87
2023-09-10T02:30:45.085Z,10.92
2023-09-10T02:31:46.934Z,10.99
2023-09-10T02:32:48.869Z,11.04
2023-09-10T02:33:50.901Z,11.08
2023-09-10T02:34:55.499Z,11.10
2023-09-10T02:35:57.433Z,11.14
2023-09-10T02:37:00.959Z,11.22
2023-09-10T02:38:03.878Z,11.29
2023-09-10T02:39:05.933Z,11.39
2023-09-10T02:40:09.442Z,11.47
2023-09-10T02:41:11.959Z,11.54
2023-09-10T02:42:13.898Z,11.55
2023-09-10T02:43:15.674Z,11.56
2023-09-10T02:44:17.650Z,11.55
2023-09-10T02:45:19.610Z,11.66
2023-09-10T02:46:21.504Z,11.61
2023-09-10T02:47:23.357Z,11.69
2023-09-10T02:48:25.249Z,11.77
2023-09-10T02:49:27.113Z,11.87
2023-09-10T02:50:29.168Z,12.01
2023-09-10T02:51:31.038Z,12.11
2023-09-10T02:52:32.967Z,12.13
2023-09-10T02:53:34.787Z,12.17
2023-09-10T02:54:37.671Z,12.26
2023-09-10T02:55:39.571Z,12.29
2023-09-10T02:56:41.435Z,12.34
2023-09-10T02:57:43.262Z,12.36
2023-09-10T02:58:45.185Z,12.32
2023-09-10T02:59:47.074Z,12.42
2023-09-10T03:00:48.956Z,12.51
2023-09-10T03:01:50.922Z,12.63
2023-09-10T03:02:59.218Z,12.70
2023-09-10T03:04:01.117Z,12.73
2023-09-10T03:05:03.134Z,12.61
2023-09-10T03:06:13.041Z,12.72
2023-09-10T03:07:14.994Z,12.77
2023-09-10T03:08:16.901Z,12.82
2023-09-10T03:09:19.134Z,12.92
2023-09-10T03:10:21.136Z,12.95
2023-09-10T03:11:22.978Z,13.00
2023-09-10T03:12:26.366Z,13.09
2023-09-10T03:13:28.318Z,13.19
2023-09-10T03:14:30.137Z,13.25
2023-09-10T03:15:32.064Z,13.30
2023-09-10T03:16:40.466Z,13.31
2023-09-10T03:17:42.444Z,13.27
2023-09-10T03:18:46.099Z,13.26
2023-09-10T03:19:48.299Z,13.24
2023-09-10T03:20:50.162Z,13.27
2023-09-10T03:21:52.022Z,13.31
2023-09-10T03:22:59.304Z,13.34
2023-09-10T03:24:01.286Z,13.46
2023-09-10T03:25:03.465Z,13.55
2023-09-10T03:26:05.379Z,13.59
2023-09-10T03:27:07.377Z,13.65
2023-09-10T03:28:09.198Z,13.66
2023-09-10T03:29:11.275Z,13.65
2023-09-10T03:30:13.962Z,13.69
2023-09-10T03:31:15.932Z,13.73
2023-09-10T03:32:20.441Z,13.81
2023-09-10T03:33:22.743Z,13.95
2023-09-10T03:34:24.703Z,13.98
2023-09-10T03:35:27.081Z,14.05
2023-09-10T03:36:29.597Z,14.19
2023-09-10T03:37:31.478Z,14.27
2023-09-10T03:38:33.558Z,14.25
2023-09-10T03:39:35.575Z,14.37
2023-09-10T03:40:37.528Z,14.49
2023-09-10T03:41:39.709Z,14.57
2023-09-10T03:42:41.673Z,14.59
2023-09-10T03:43:43.725Z,14.52
2023-09-10T03:44:45.630Z,14.42
2023-09-10T03:45:47.583Z,14.46
2023-09-10T03:46:49.603Z,14.47
2023-09-10T03:47:51.621Z,14.50
2023-09-10T03:48:53.539Z,14.56
2023-09-10T03:49:55.393Z,14.59
2023-09-10T03:50:57.314Z,14.65
2023-09-10T03:51:59.342Z,14.64
2023-09-10T03:53:01.359Z,14.63
2023-09-10T03:54:03.487Z,14.57
2023-09-10T03:55:05.952Z,14.47
2023-09-10T03:56:08.292Z,14.46
2023-09-10T03:57:10.343Z,14.45
2023-09-10T03:58:12.177Z,14.44
2023-09-10T03:59:14.145Z,14.52
2023-09-10T04:00:16.340Z,14.67
2023-09-10T04:01:18.290Z,14.72
2023-09-10T04:02:20.798Z,14.73
2023-09-10T04:03:23.110Z,14.87
2023-09-10T04:04:25.194Z,14.81
2023-09-10T04:05:27.332Z,14.86
2023-09-10T04:06:29.196Z,14.82
2023-09-10T04:07:31.338Z,14.81
2023-09-10T04:08:33.175Z,14.76
2023-09-10T04:09:35.031Z,14.83
2023-09-10T04:10:36.955Z,14.88
2023-09-10T04:11:38.963Z,14.78
2023-09-10T04:12:40.834Z,14.82
2023-09-10T04:13:43.013Z,14.87
2023-09-10T04:14:45.210Z,14.84
2023-09-10T04:15:47.188Z,14.88
2023-09-10T04:16:49.093Z,15.01
2023-09-10T04:17:51.043Z,14.97
2023-09-10T04:18:52.888Z,15.03
2023-09-10T04:19:54.779Z,15.06
2023-09-10T04:20:56.664Z,15.01
2023-09-10T04:21:58.646Z,14.99
2023-09-10T04:23:00.521Z,14.98
2023-09-10T04:24:02.422Z,15.04
2023-09-10T04:25:04.659Z,14.98
2023-09-10T04:26:06.899Z,15.11
2023-09-10T04:27:08.899Z,15.09
2023-09-10T04:28:10.782Z,15.28
2023-09-10T04:29:12.581Z,15.40
2023-09-10T04:30:14.587Z,15.35
2023-09-10T04:31:18.207Z,15.39
2023-09-10T04:32:20.148Z,15.41
2023-09-10T04:33:22.026Z,15.48
2023-09-10T04:34:24.072Z,15.51
2023-09-10T04:35:25.880Z,15.55
2023-09-10T04:36:27.669Z,15.72
2023-09-10T04:37:30.074Z,15.83
2023-09-10T04:38:31.954Z,15.76
2023-09-10T04:39:33.804Z,15.72
2023-09-10T04:40:35.667Z,15.87
2023-09-10T04:41:37.993Z,15.95
2023-09-10T04:42:40.002Z,16.03
2023-09-10T04:43:41.841Z,15.93
2023-09-10T04:44:43.705Z,15.89
2023-09-10T04:45:45.582Z,15.94
2023-09-10T04:46:47.710Z,15.90
2023-09-10T04:47:49.674Z,15.97
2023-09-10T04:48:51.720Z,16.13
2023-09-10T04:49:53.631Z,16.04
2023-09-10T04:50:55.515Z,15.91
2023-09-10T04:51:57.464Z,16.01
2023-09-10T04:53:02.907Z,15.98
2023-09-10T04:54:05.047Z,15.80
2023-09-10T04:55:07.331Z,15.77
2023-09-10T04:56:09.519Z,15.97
2023-09-10T04:57:11.661Z,16.03
2023-09-10T04:58:13.703Z,15.93
2023-09-10T04:59:15.693Z,15.85
2023-09-10T05:00:17.700Z,15.78
2023-09-10T05:01:19.713Z,15.83
2023-09-10T05:02:21.806Z,15.95
2023-09-10T05:03:23.912Z,15.93
2023-09-10T05:04:25.973Z,15.81
2023-09-10T05:05:27.997Z,15.94
2023-09-10T05:06:29.806Z,16.09
2023-09-10T05:07:31.705Z,16.14
2023-09-10T05:08:33.647Z,16.14
2023-09-10T05:09:35.645Z,16.27
2023-09-10T05:10:38.940Z,16.38
2023-09-10T05:11:40.944Z,16.41
2023-09-10T05:12:43.917Z,16.48
2023-09-10T05:13:45.936Z,16.42
2023-09-10T05:14:47.950Z,16.45
2023-09-10T05:15:50.266Z,16.51
2023-09-10T05:16:52.276Z,16.52
2023-09-10T05:17:54.237Z,16.46
2023-09-10T05:18:56.230Z,16.36
2023-09-10T05:19:58.304Z,16.32
2023-09-10T05:21:00.311Z,16.50
2023-09-10T05:22:02.227Z,16.49
2023-09-10T05:23:04.286Z,16.49
2023-09-10T05:24:08.567Z,16.57
2023-09-10T05:25:10.634Z,16.62
2023-09-10T05:26:12.681Z,16.65
2023-09-10T05:27:14.590Z,16.72
2023-09-10T05:28:16.825Z,16.81
2023-09-10T05:29:18.678Z,16.89
2023-09-10T05:30:20.763Z,16.98
2023-09-10T05:31:22.645Z,17.04
2023-09-10T05:32:24.763Z,17.04
2023-09-10T05:33:26.872Z,16.99
2023-09-10T05:34:28.698Z,17.03
2023-09-10T05:35:30.670Z,17.07
2023-09-10T05:36:32.763Z,17.13
2023-09-10T05:37:34.650Z,17.13
2023-09-10T05:38:36.548Z,17.21
2023-09-10T05:39:38.454Z,17.29
2023-09-10T05:40:40.458Z,17.29
2023-09-10T05:41:42.874Z,17.38
2023-09-10T05:42:45.923Z,17.34
2023-09-10T05:43:47.883Z,17.36
2023-09-10T05:44:56.181Z,17.34
2023-09-10T05:45:58.519Z,17.37
2023-09-10T05:47:00.570Z,17.42
2023-09-10T05:48:02.694Z,17.39
2023-09-10T05:49:04.635Z,17.22
2023-09-10T05:50:06.939Z,17.21
2023-09-10T05:51:08.853Z,17.10
2023-09-10T05:52:11.041Z,17.12
2023-09-10T05:53:12.995Z,17.20
2023-09-10T05:54:17.522Z,17.28
2023-09-10T05:55:19.762Z,17.27
2023-09-10T05:56:21.789Z,17.23
2023-09-10T05:57:23.948Z,17.26
2023-09-10T05:58:26.944Z,17.14
2023-09-10T05:59:28.802Z,17.17
2023-09-10T06:00:30.682Z,17.25
2023-09-10T06:01:32.540Z,17.36
2023-09-10T06:02:35.068Z,17.54
2023-09-10T06:03:37.317Z,17.58
2023-09-10T06:04:39.405Z,17.58
2023-09-10T06:05:41.326Z,17.57
2023-09-10T06:06:43.256Z,17.48
2023-09-10T06:07:45.810Z,17.57
2023-09-10T06:08:47.865Z,17.57
2023-09-10T06:09:49.633Z,17.65
2023-09-10T06:10:51.490Z,17.69
2023-09-10T06:11:53.538Z,17.63
2023-09-10T06:12:55.322Z,17.66
2023-09-10T06:13:57.310Z,17.55
2023-09-10T06:14:59.213Z,17.41
2023-09-10T06:16:01.654Z,17.41
2023-09-10T06:17:04.177Z,17.26
2023-09-10T06:18:06.249Z,17.18
2023-09-10T06:19:08.166Z,17.09
2023-09-10T06:20:10.715Z,17.00
2023-09-10T06:21:12.619Z,16.82
2023-09-10T06:22:14.438Z,16.79
2023-09-10T06:23:16.616Z,16.68
2023-09-10T06:24:18.689Z,16.59
2023-09-10T06:25:20.863Z,16.57
2023-09-10T06:26:22.963Z,16.49
2023-09-10T06:27:24.753Z,16.49
2023-09-10T06:28:27.265Z,16.44
2023-09-10T06:29:29.177Z,16.47
2023-09-10T06:30:31.092Z,16.44
2023-09-10T06:31:32.937Z,16.42
2023-09-10T06:32:34.981Z,16.35
2023-09-10T06:33:36.914Z,16.37
2023-09-10T06:34:38.781Z,16.44
2023-09-10T06:35:40.717Z,16.48
2023-09-10T06:36:42.551Z,16.55
2023-09-10T06:37:45.335Z,16.61
2023-09-10T06:38:49.255Z,16.62
2023-09-10T06:39:51.431Z,16.64
2023-09-10T06:40:53.539Z,16.65
2023-09-10T06:41:56.055Z,16.67
2023-09-10T06:42:57.856Z,16.70
2023-09-10T06:43:59.691Z,16.76
2023-09-10T06:45:01.636Z,16.79
2023-09-10T06:46:04.617Z,16.77
2023-09-10T06:47:06.806Z,16.81
2023-09-10T06:48:08.661Z,16.81
2023-09-10T06:49:10.635Z,16.82
2023-09-10T06:50:12.734Z,16.86
2023-09-10T06:51:14.678Z,16.86
2023-09-10T06:52:16.609Z,16.89
2023-09-10T06:53:18.528Z,16.88
2023-09-10T06:54:20.494Z,16.89
2023-09-10T06:55:22.436Z,16.90
2023-09-10T06:56:26.408Z,16.93
2023-09-10T06:57:30.764Z,16.95
2023-09-10T06:58:32.746Z,16.88
2023-09-10T06:59:34.937Z,16.92
2023-09-10T07:00:36.759Z,16.94
2023-09-10T07:01:41.719Z,16.97
2023-09-10T07:02:43.637Z,17.02
2023-09-10T07:03:47.139Z,17.06
2023-09-10T07:04:49.162Z,17.10
2023-09-10T07:05:51.129Z,17.19
2023-09-10T07:06:54.249Z,17.23
2023-09-10T07:07:56.194Z,17.31
2023-09-10T07:08:57.990Z,17.39
2023-09-10T07:10:00.019Z,17.44
2023-09-10T07:11:02.028Z,17.41
2023-09-10T07:12:04.476Z,17.40
2023-09-10T07:13:07.533Z,17.44
2023-09-10T07:14:09.713Z,17.43
2023-09-10T07:15:11.500Z,17.49
2023-09-10T07:16:13.664Z,17.56
2023-09-10T07:17:15.666Z,17.62
2023-09-10T07:18:17.579Z,17.68
2023-09-10T07:19:19.460Z,17.74
2023-09-10T07:20:21.377Z,17.79
2023-09-10T07:21:23.238Z,17.79
2023-09-10T07:22:25.340Z,17.86
2023-09-10T07:23:28.101Z,17.90
2023-09-10T07:24:30.066Z,17.95
2023-09-10T07:25:31.932Z,18.03
2023-09-10T07:26:40.551Z,17.99
2023-09-10T07:27:42.531Z,17.88
2023-09-10T07:28:44.408Z,17.91
2023-09-10T07:29:46.259Z,17.93
2023-09-10T07:30:48.155Z,17.97
2023-09-10T07:31:50.204Z,17.97
2023-09-10T07:32:52.114Z,18.01
2023-09-10T07:33:53.990Z,18.07
2023-09-10T07:34:56.020Z,18.03
2023-09-10T07:35:57.830Z,18.00
2023-09-10T07:36:59.672Z,17.92
2023-09-10T07:38:01.522Z,17.83
2023-09-10T07:39:03.480Z,17.85
2023-09-10T07:40:05.739Z,17.96
2023-09-10T07:41:07.640Z,18.09
2023-09-10T07:42:09.510Z,18.24
2023-09-10T07:43:11.539Z,18.41
2023-09-10T07:44:13.580Z,18.44
2023-09-10T07:45:15.738Z,18.43
2023-09-10T07:46:17.705Z,18.34
2023-09-10T07:47:19.568Z,18.17
2023-09-10T07:48:21.449Z,18.16
2023-09-10T07:49:23.305Z,18.13
2023-09-10T07:50:25.224Z,18.13
2023-09-10T07:51:27.506Z,18.15
2023-09-10T07:52:29.425Z,18.15
2023-09-10T07:53:31.293Z,18.24
2023-09-10T07:54:37.061Z,18.32
2023-09-10T07:55:38.921Z,18.40
2023-09-10T07:56:40.964Z,18.35
2023-09-10T07:57:43.060Z,18.39
2023-09-10T07:58:45.299Z,18.45
2023-09-10T07:59:47.259Z,18.57
2023-09-10T08:00:49.328Z,18.63
2023-09-10T08:01:51.186Z,18.69
2023-09-10T08:02:53.040Z,18.77
2023-09-10T08:03:55.261Z,18.87
2023-09-10T08:04:57.285Z,18.85
2023-09-10T08:06:00.508Z,18.82
2023-09-10T08:07:05.067Z,18.82
2023-09-10T08:08:07.522Z,18.73
2023-09-10T08:09:09.722Z,18.66
2023-09-10T08:10:11.628Z,18.67
2023-09-10T08:11:13.630Z,18.72
2023-09-10T08:12:15.699Z,18.70
2023-09-10T08:13:17.838Z,18.63
2023-09-10T08:14:19.726Z,18.57
2023-09-10T08:15:21.581Z,18.56
2023-09-10T08:16:23.545Z,18.64
2023-09-10T08:17:25.662Z,18.73
2023-09-10T08:18:27.730Z,18.83
2023-09-10T08:19:29.600Z,18.94
2023-09-10T08:20:31.751Z,19.03
2023-09-10T08:21:33.578Z,19.07
2023-09-10T08:22:35.547Z,19.22
2023-09-10T08:23:37.436Z,19.33
2023-09-10T08:24:39.264Z,19.38
2023-09-10T08:25:41.554Z,19.45
2023-09-10T08:26:43.357Z,19.47
2023-09-10T08:27:45.229Z,19.51
2023-09-10T08:28:47.266Z,19.55
2023-09-10T08:29:49.126Z,19.61
2023-09-10T08:30:51.293Z,19.65
2023-09-10T08:31:53.192Z,19.75
2023-09-10T08:32:55.236Z,19.79
2023-09-10T08:33:57.079Z,19.77
2023-09-10T08:34:58.885Z,19.79
2023-09-10T08:36:00.674Z,19.87
2023-09-10T08:37:07.164Z,19.95
2023-09-10T08:38:09.064Z,20.01
2023-09-10T08:39:11.144Z,19.97
2023-09-10T08:40:13.669Z,20.01
2023-09-10T08:41:27.994Z,19.89
2023-09-10T08:42:57.096Z,19.81
2023-09-10T08:43:59.874Z,19.70
2023-09-10T08:45:06.386Z,19.67
2023-09-10T08:46:11.857Z,19.72
2023-09-10T08:47:18.508Z,19.63
2023-09-10T08:48:21.299Z,19.51
2023-09-10T08:49:25.130Z,19.44
2023-09-10T08:50:27.256Z,19.49
2023-09-10T08:51:31.079Z,19.53
2023-09-10T08:52:34.214Z,19.66
2023-09-10T08:53:38.222Z,19.71
2023-09-10T08:54:40.132Z,19.77
2023-09-10T08:55:47.652Z,19.74
2023-09-10T08:56:50.827Z,19.72
2023-09-10T08:57:55.612Z,19.74
2023-09-10T08:58:59.024Z,19.72
2023-09-10T09:00:02.069Z,19.73
2023-09-10T09:01:07.785Z,19.81
2023-09-10T09:02:10.978Z,19.98
2023-09-10T09:03:13.690Z,20.03
2023-09-10T09:04:17.078Z,20.08
2023-09-10T09:05:19.042Z,20.13
2023-09-10T09:06:21.990Z,20.16
2023-09-10T09:07:31.095Z,20.25
2023-09-10T09:08:35.145Z,20.27
2023-09-10T09:09:42.714Z,20.36
2023-09-10T09:10:45.840Z,20.34
2023-09-10T09:11:49.632Z,20.21
2023-09-10T09:12:54.918Z,20.19
2023-09-10T09:13:58.258Z,19.94
2023-09-10T09:15:02.554Z,19.82
2023-09-10T09:16:06.321Z,19.67
2023-09-10T09:17:08.552Z,19.64
2023-09-10T09:18:14.789Z,19.52
2023-09-10T09:19:18.824Z,19.53
2023-09-10T09:20:21.164Z,19.64
2023-09-10T09:21:25.817Z,19.81
2023-09-10T09:22:31.007Z,19.93
2023-09-10T09:23:58.669Z,20.05
2023-09-10T09:25:01.470Z,19.94
2023-09-10T09:26:03.526Z,19.92
2023-09-10T09:27:06.136Z,19.98
2023-09-10T09:28:11.579Z,19.99
2023-09-10T09:29:13.975Z,19.93
2023-09-10T09:30:16.044Z,20.03
2023-09-10T09:31:21.378Z,20.11
2023-09-10T09:32:23.736Z,20.06
2023-09-10T09:33:25.742Z,19.90
2023-09-10T09:34:27.786Z,19.93
2023-09-10T09:35:29.629Z,19.82
2023-09-10T09:36:33.896Z,19.83
2023-09-10T09:37:36.678Z,19.75
2023-09-10T09:38:46.694Z,19.71
2023-09-10T09:39:51.051Z,19.71
2023-09-10T09:40:54.323Z,19.60
2023-09-10T09:41:56.297Z,19.57
2023-09-10T09:43:13.119Z,19.49
2023-09-10T09:44:20.656Z,19.58
2023-09-10T09:45:22.782Z,19.60
2023-09-10T09:46:32.860Z,19.58
2023-09-10T09:47:35.157Z,19.58
2023-09-10T09:48:38.739Z,19.47
2023-09-10T09:49:46.689Z,19.48
2023-09-10T09:50:49.010Z,19.54
2023-09-10T09:51:51.364Z,19.62
2023-09-10T09:52:53.938Z,19.79
2023-09-10T09:53:56.225Z,20.00
2023-09-10T09:54:58.156Z,20.17
2023-09-10T09:56:05.684Z,20.24
2023-09-10T09:57:08.195Z,20.23
2023-09-10T09:58:10.301Z,20.30
2023-09-10T09:59:12.209Z,20.26
2023-09-10T10:00:14.611Z,20.23
2023-09-10T10:01:16.489Z,20.14
2023-09-10T10:02:19.629Z,20.07
2023-09-10T10:03:21.764Z,20.10
2023-09-10T10:04:24.607Z,20.24
2023-09-10T10:05:26.508Z,20.38
2023-09-10T10:06:30.073Z,20.51
2023-09-10T10:08:49.796Z,20.61
2023-09-10T10:09:51.844Z,20.56
2023-09-10T10:10:53.851Z,20.50
2023-09-10T10:11:55.688Z,20.48
2023-09-10T10:12:58.559Z,20.45
2023-09-10T10:14:01.699Z,20.40
2023-09-10T10:15:04.226Z,20.35
2023-09-10T10:16:07.241Z,20.23
2023-09-10T10:17:09.833Z,20.12
2023-09-10T10:18:12.130Z,20.03
2023-09-10T10:19:15.359Z,20.11
2023-09-10T10:20:18.435Z,20.18
2023-09-10T10:21:22.700Z,20.26
2023-09-10T10:22:25.067Z,20.18
2023-09-10T10:23:27.974Z,20.01
2023-09-10T10:24:30.770Z,20.00
2023-09-10T10:25:33.451Z,19.99
2023-09-10T10:26:35.443Z,19.91
2023-09-10T10:27:38.098Z,19.84
2023-09-10T10:28:40.564Z,19.84
2023-09-10T10:29:42.528Z,19.88
2023-09-10T10:30:50.854Z,20.03
2023-09-10T10:32:27.465Z,20.22
2023-09-10T10:33:30.839Z,20.21
2023-09-10T10:34:39.123Z,20.18
2023-09-10T10:35:45.536Z,20.10
2023-09-10T10:37:09.258Z,20.05
2023-09-10T10:38:16.493Z,20.03
2023-09-10T10:39:28.019Z,20.11
2023-09-10T10:40:36.684Z,20.27
2023-09-10T10:41:46.021Z,20.36
2023-09-10T10:42:56.055Z,20.39
2023-09-10T10:44:00.924Z,20.52
2023-09-10T10:45:10.993Z,20.41
2023-09-10T10:46:13.257Z,20.34
2023-09-10T10:47:20.124Z,20.15
2023-09-10T10:48:26.915Z,20.10
2023-09-10T10:49:31.782Z,20.01
2023-09-10T10:50:37.022Z,19.92
2023-09-10T10:51:54.953Z,19.80
2023-09-10T10:53:21.317Z,19.74
2023-09-10T10:54:23.755Z,19.63
2023-09-10T10:55:27.252Z,19.52
2023-09-10T10:56:29.302Z,19.52
2023-09-10T10:57:32.253Z,19.50
2023-09-10T10:58:38.767Z,19.48
2023-09-10T10:59:41.624Z,19.57
2023-09-10T11:00:43.635Z,19.73
2023-09-10T11:02:10.179Z,19.96
2023-09-10T11:03:15.047Z,20.06
2023-09-10T11:04:20.449Z,20.15
2023-09-10T11:05:22.477Z,20.28
2023-09-10T11:06:24.507Z,20.32
2023-09-10T11:07:28.103Z,20.39
2023-09-10T11:08:44.027Z,20.52
2023-09-10T11:09:47.539Z,20.40
2023-09-10T11:10:49.389Z,20.36
2023-09-10T11:11:51.556Z,20.21
2023-09-10T11:13:11.397Z,20.15
2023-09-10T11:14:13.352Z,19.99
2023-09-10T11:15:15.268Z,19.92
2023-09-10T11:16:18.320Z,19.80
2023-09-10T11:17:25.729Z,19.80
2023-09-10T11:18:37.383Z,19.86
2023-09-10T11:19:47.123Z,19.90
2023-09-10T11:20:51.685Z,19.91
2023-09-10T11:21:56.564Z,20.01
2023-09-10T11:23:06.955Z,20.23
2023-09-10T11:24:14.991Z,20.36
2023-09-10T11:25:16.781Z,20.48
2023-09-10T11:26:18.691Z,20.49
2023-09-10T11:27:24.440Z,20.44
2023-09-10T11:28:45.962Z,20.41
2023-09-10T11:30:05.111Z,20.21
2023-09-10T11:31:47.954Z,20.00
2023-09-10T11:32:53.935Z,19.82
2023-09-10T11:34:00.332Z,19.75
2023-09-10T11:35:20.412Z,19.83
2023-09-10T11:36:25.272Z,19.83
2023-09-10T11:37:27.393Z,19.77
2023-09-10T11:38:31.493Z,19.75
2023-09-10T11:39:35.634Z,19.85
2023-09-10T11:40:38.503Z,19.92
2023-09-10T11:41:40.461Z,19.98
2023-09-10T11:42:49.887Z,20.13
2023-09-10T11:43:52.040Z,20.27
2023-09-10T11:44:56.827Z,20.42
2023-09-10T11:45:58.804Z,20.53
2023-09-10T11:47:00.752Z,20.60
2023-09-10T11:48:02.968Z,20.55
2023-09-10T11:49:05.375Z,20.50
2023-09-10T11:50:10.333Z,20.39
2023-09-10T11:51:12.244Z,20.23
2023-09-10T11:52:14.115Z,20.11
2023-09-10T11:53:16.114Z,19.99
2023-09-10T11:54:19.090Z,19.93
2023-09-10T11:55:21.380Z,19.84
2023-09-10T11:56:23.307Z,19.81
2023-09-10T11:57:25.274Z,19.74
2023-09-10T11:58:27.580Z,19.73
2023-09-10T11:59:31.951Z,19.78
2023-09-10T12:00:34.198Z,19.91
2023-09-10T12:01:36.929Z,20.03
2023-09-10T12:02:38.852Z,20.12
2023-09-10T12:03:45.798Z,20.18
2023-09-10T12:04:48.418Z,20.25
2023-09-10T12:05:50.492Z,20.36
2023-09-10T12:06:52.264Z,20.35
2023-09-10T12:07:54.174Z,20.28
2023-09-10T12:08:55.937Z,20.17
2023-09-10T12:09:57.809Z,20.08
2023-09-10T12:11:04.714Z,19.92
2023-09-10T12:12:17.777Z,19.75
2023-09-10T12:13:20.251Z,19.63
2023-09-10T12:14:24.281Z,19.60
2023-09-10T12:15:27.499Z,19.58
2023-09-10T12:16:30.000Z,19.54
2023-09-10T12:17:32.364Z,19.57
2023-09-10T12:18:35.007Z,19.69
2023-09-10T12:19:37.760Z,19.80
2023-09-10T12:20:40.276Z,19.93
2023-09-10T12:21:42.961Z,20.00
2023-09-10T12:22:44.923Z,20.04
2023-09-10T12:23:47.961Z,20.04
2023-09-10T12:24:49.941Z,20.06
2023-09-10T12:25:59.609Z,20.05
2023-09-10T12:27:01.659Z,20.01
2023-09-10T12:28:03.930Z,20.00
2023-09-10T12:29:06.537Z,19.97
2023-09-10T12:30:09.576Z,19.99
2023-09-10T12:31:12.526Z,19.98
2023-09-10T12:32:14.492Z,19.95
2023-09-10T12:33:16.572Z,20.02
2023-09-10T12:34:18.675Z,20.11
2023-09-10T12:35:21.856Z,20.17
2023-09-10T12:36:24.852Z,20.28
2023-09-10T12:37:26.777Z,20.32
2023-09-10T12:38:29.825Z,20.39
2023-09-10T12:39:34.700Z,20.44
2023-09-10T12:40:38.880Z,20.46
2023-09-10T12:41:41.027Z,20.50
2023-09-10T12:42:42.899Z,20.52
2023-09-10T12:43:45.496Z,20.50
2023-09-10T12:44:47.378Z,20.44
2023-09-10T12:45:51.683Z,20.41
2023-09-10T12:46:53.930Z,20.36
2023-09-10T12:47:56.341Z,20.36
2023-09-10T12:48:58.495Z,20.37
2023-09-10T12:50:00.508Z,20.32
2023-09-10T12:51:02.536Z,20.27
2023-09-10T12:52:05.058Z,20.20
2023-09-10T12:53:07.117Z,20.16
2023-09-10T12:54:09.646Z,20.06
2023-09-10T12:55:11.575Z,19.96
2023-09-10T12:56:13.459Z,19.92
2023-09-10T12:57:15.612Z,19.92
2023-09-10T12:58:18.411Z,19.90
2023-09-10T12:59:22.078Z,19.88
2023-09-10T13:00:27.648Z,19.90
2023-09-10T13:01:29.862Z,19.89
2023-09-10T13:02:33.660Z,19.89
2023-09-10T13:03:35.724Z,19.91
2023-09-10T13:04:38.239Z,19.89
2023-09-10T13:05:41.301Z,19.86
2023-09-10T13:06:45.266Z,19.81
2023-09-10T13:07:47.193Z,19.78
2023-09-10T13:08:49.136Z,19.80
2023-09-10T13:09:51.246Z,19.82
2023-09-10T13:10:53.064Z,19.89
2023-09-10T13:11:54.897Z,19.91
2023-09-10T13:12:56.670Z,19.87
2023-09-10T13:13:58.983Z,19.83
2023-09-10T13:15:00.991Z,19.78
2023-09-10T13:16:02.826Z,19.80
2023-09-10T13:17:05.324Z,19.82
2023-09-10T13:18:07.518Z,19.82
2023-09-10T13:19:09.728Z,19.83
2023-09-10T13:20:12.747Z,19.90
2023-09-10T13:21:15.254Z,19.92
2023-09-10T13:22:17.177Z,19.93
2023-09-10T13:23:20.292Z,19.92
2023-09-10T13:24:22.245Z,19.87
2023-09-10T13:25:24.055Z,19.80
2023-09-10T13:26:25.905Z,19.78
2023-09-10T13:27:30.507Z,19.80
2023-09-10T13:28:32.494Z,19.75
2023-09-10T13:29:34.457Z,19.67
2023-09-10T13:30:36.587Z,19.57
2023-09-10T13:31:38.463Z,19.55
2023-09-10T13:32:40.823Z,19.53
2023-09-10T13:33:43.072Z,19.54
2023-09-10T13:34:45.091Z,19.50
2023-09-10T13:35:46.927Z,19.49
2023-09-10T13:36:48.748Z,19.47
2023-09-10T13:37:50.645Z,19.45
2023-09-10T13:38:53.115Z,19.42
2023-09-10T13:39:56.461Z,19.39
2023-09-10T13:40:58.505Z,19.38
2023-09-10T13:42:00.517Z,19.37